createdAt,value
2023-05-14T00:03:42.496Z,8.20
2023-05-14T00:08:44.758Z,8.00
2023-05-14T00:13:47.981Z,7.93
2023-05-14T00:18:50.321Z,7.93
2023-05-14T00:23:52.581Z,7.93
2023-05-14T00:28:55.553Z,7.30
2023-05-14T00:33:57.947Z,7.82
2023-05-14T00:39:00.226Z,7.80
2023-05-14T00:44:02.922Z,6.80
2023-05-14T00:49:05.518Z,7.13
2023-05-14T00:54:08.333Z,7.65
2023-05-14T00:59:10.551Z,5.90
2023-05-14T01:04:13.630Z,6.68
2023-05-14T01:14:49.700Z,7.20
2023-05-14T01:19:52.428Z,6.38
2023-05-14T01:24:54.738Z,7.50
2023-05-14T01:35:34.061Z,6.70
2023-05-14T01:40:37.322Z,6.20
2023-05-14T01:45:39.745Z,5.95
2023-05-14T01:50:42.031Z,6.28
2023-05-14T01:55:44.291Z,5.50
2023-05-14T02:00:46.647Z,5.53
2023-05-14T02:05:49.181Z,6.28
2023-05-14T02:10:53.023Z,5.97
2023-05-14T02:15:55.334Z,6.45
2023-05-14T02:20:57.929Z,6.63
2023-05-14T02:26:00.309Z,7.20
2023-05-14T02:31:02.584Z,6.28
2023-05-14T02:36:04.931Z,7.40
2023-05-14T02:41:07.634Z,6.95
2023-05-14T02:46:09.839Z,7.18
2023-05-14T02:51:12.496Z,7.05
2023-05-14T02:56:14.747Z,7.38
2023-05-14T03:01:18.921Z,7.05
2023-05-14T03:06:22.204Z,7.22
2023-05-14T03:11:24.621Z,7.10
2023-05-14T03:16:27.038Z,7.05
2023-05-14T03:21:29.356Z,8.40
2023-05-14T03:26:31.628Z,7.20
2023-05-14T03:31:33.833Z,7.93
2023-05-14T03:36:37.833Z,8.05
2023-05-14T03:41:40.034Z,7.97
2023-05-14T03:46:42.341Z,8.88
2023-05-14T03:51:44.596Z,8.80
2023-05-14T03:56:46.948Z,8.25
2023-05-14T04:01:49.188Z,7.40
2023-05-14T04:06:52.652Z,7.82
2023-05-14T04:11:55.016Z,8.20
2023-05-14T04:16:57.978Z,8.32
2023-05-14T04:22:01.203Z,9.57
2023-05-14T04:27:03.878Z,10.43
2023-05-14T04:32:06.832Z,9.98
2023-05-14T04:37:09.080Z,9.75
2023-05-14T04:42:11.425Z,11.32
2023-05-14T04:47:13.660Z,14.90
2023-05-14T04:52:16.011Z,17.00
2023-05-14T04:57:18.239Z,18.17
2023-05-14T05:02:20.529Z,17.63
2023-05-14T05:07:23.116Z,17.48
2023-05-14T05:12:26.168Z,16.10
2023-05-14T05:17:29.788Z,15.75
2023-05-14T05:22:32.108Z,17.15
2023-05-14T05:27:34.322Z,15.98
2023-05-14T05:32:36.855Z,17.40
2023-05-14T05:37:39.074Z,17.17
2023-05-14T05:42:41.773Z,15.40
2023-05-14T05:47:44.154Z,13.25
2023-05-14T05:52:46.457Z,12.25
2023-05-14T05:57:48.719Z,9.80
2023-05-14T06:02:51.007Z,10.70
2023-05-14T06:07:53.824Z,13.63
2023-05-14T06:12:56.356Z,13.55
2023-05-14T06:17:58.657Z,8.48
2023-05-14T06:23:01.093Z,7.05
2023-05-14T06:28:03.460Z,6.07
2023-05-14T06:33:05.860Z,6.88
2023-05-14T06:38:08.141Z,6.20
2023-05-14T06:43:10.329Z,5.88
2023-05-14T06:48:13.381Z,5.63
2023-05-14T06:53:15.823Z,5.90
2023-05-14T06:58:18.091Z,6.15
2023-05-14T07:03:20.502Z,6.90
2023-05-14T07:08:23.390Z,7.75
2023-05-14T07:13:28.863Z,6.25
2023-05-14T07:18:31.410Z,6.15
2023-05-14T07:23:36.333Z,5.28
2023-05-14T07:28:38.768Z,5.70
2023-05-14T07:33:40.959Z,5.55
2023-05-14T07:38:43.270Z,4.97
2023-05-14T07:43:45.671Z,6.13
2023-05-14T07:48:47.901Z,5.35
2023-05-14T07:53:50.070Z,5.32
2023-05-14T07:58:52.374Z,5.15
2023-05-14T08:03:54.682Z,5.63
2023-05-14T08:08:58.281Z,5.30
2023-05-14T08:14:01.044Z,5.75
2023-05-14T08:19:03.295Z,6.45
2023-05-14T08:24:05.918Z,5.78
2023-05-14T08:29:10.486Z,5.90
2023-05-14T08:34:13.201Z,5.70
2023-05-14T08:39:15.371Z,6.07
2023-05-14T08:54:38.350Z,5.43
2023-05-14T08:59:41.282Z,5.15
2023-05-14T09:04:43.625Z,5.65
2023-05-14T09:09:46.261Z,5.63
2023-05-14T09:14:50.194Z,5.97
2023-05-14T09:19:53.353Z,6.07
2023-05-14T09:25:07.096Z,5.90
2023-05-14T09:30:12.156Z,7.55
2023-05-14T09:35:17.985Z,5.90
2023-05-14T09:40:22.392Z,6.38
2023-05-14T09:45:24.943Z,6.80
2023-05-14T09:50:27.315Z,7.22
2023-05-14T09:55:29.812Z,7.80
2023-05-14T10:00:32.850Z,6.28
2023-05-14T10:05:36.846Z,6.35
2023-05-14T10:10:40.671Z,6.43
2023-05-14T10:15:50.873Z,6.80
2023-05-14T10:21:04.259Z,8.13
2023-05-14T10:26:06.980Z,8.25
2023-05-14T10:31:10.970Z,7.97
2023-05-14T10:36:13.426Z,9.48
2023-05-14T10:41:18.115Z,8.38
2023-05-14T10:46:21.003Z,8.90
2023-05-14T10:51:23.963Z,9.38
2023-05-14T10:56:26.250Z,8.32
2023-05-14T11:01:28.619Z,8.23
2023-05-14T11:06:31.597Z,6.93
2023-05-14T11:11:35.405Z,8.40
2023-05-14T11:16:38.126Z,6.70
2023-05-14T11:21:41.192Z,6.50
2023-05-14T11:26:43.444Z,6.22
2023-05-14T11:31:45.806Z,13.52
2023-05-14T11:36:48.051Z,7.20
2023-05-14T11:41:50.313Z,6.60
2023-05-14T11:46:57.217Z,9.55
2023-05-14T11:52:00.749Z,7.85
2023-05-14T11:57:10.090Z,7.90
2023-05-14T12:02:14.569Z,8.05
2023-05-14T12:07:17.097Z,8.00
2023-05-14T12:12:22.446Z,5.80
2023-05-14T12:17:24.872Z,7.57
2023-05-14T12:22:29.681Z,6.90
2023-05-14T12:27:31.986Z,7.00
2023-05-14T12:32:36.192Z,6.78
2023-05-14T12:37:40.077Z,7.00
2023-05-14T12:42:42.350Z,7.13
2023-05-14T12:47:44.553Z,6.93
2023-05-14T12:52:46.830Z,7.32
2023-05-14T12:57:49.266Z,7.57
2023-05-14T13:02:51.630Z,7.38
2023-05-14T13:07:53.962Z,7.40
2023-05-14T13:12:56.609Z,6.97
2023-05-14T13:17:59.015Z,6.50
2023-05-14T13:23:01.262Z,6.25
2023-05-14T13:28:03.498Z,7.88
2023-05-14T13:33:06.084Z,5.85
2023-05-14T13:38:08.394Z,6.25
2023-05-14T13:43:11.100Z,6.60
2023-05-14T13:48:13.386Z,7.20
2023-05-14T13:53:15.802Z,6.20
2023-05-14T13:58:18.122Z,6.90
2023-05-14T14:03:20.599Z,6.45
2023-05-14T14:08:24.394Z,6.30
2023-05-14T14:13:29.651Z,6.10
2023-05-14T14:18:32.261Z,6.90
2023-05-14T14:23:34.548Z,6.45
2023-05-14T14:28:37.105Z,6.70
2023-05-14T14:33:39.613Z,11.05
2023-05-14T14:38:42.066Z,8.18
2023-05-14T14:43:44.336Z,7.97
2023-05-14T14:48:46.620Z,8.30
2023-05-14T14:53:48.912Z,9.07
2023-05-14T14:58:51.094Z,8.90
2023-05-14T15:03:53.463Z,12.20
2023-05-14T15:08:55.920Z,20.88
2023-05-14T15:13:58.720Z,15.07
2023-05-14T15:19:01.895Z,8.88
2023-05-14T15:24:05.245Z,11.55
2023-05-14T15:29:07.863Z,9.02
2023-05-14T15:34:10.259Z,9.18
2023-05-14T15:39:13.016Z,9.18
2023-05-14T15:44:15.227Z,9.80
2023-05-14T15:49:17.515Z,9.68
2023-05-14T15:54:19.820Z,10.13
2023-05-14T15:59:22.146Z,10.00
2023-05-14T16:04:24.388Z,9.52
2023-05-14T16:09:26.878Z,10.77
2023-05-14T16:14:29.610Z,11.05
2023-05-14T16:19:32.237Z,9.98
2023-05-14T16:24:34.630Z,11.23
2023-05-14T16:29:36.940Z,11.05
2023-05-14T16:34:39.176Z,10.45
2023-05-14T16:39:41.420Z,9.20
2023-05-14T16:44:43.994Z,10.18
2023-05-14T16:49:46.279Z,9.70
2023-05-14T16:54:48.581Z,9.55
2023-05-14T16:59:53.550Z,9.40
2023-05-14T17:04:56.062Z,9.40
2023-05-14T17:10:00.131Z,16.80
2023-05-14T17:15:05.307Z,10.00
2023-05-14T17:20:08.662Z,9.40
2023-05-14T17:25:11.017Z,33.33
2023-05-14T17:30:13.574Z,18.15
2023-05-14T17:35:16.456Z,10.18
2023-05-14T17:40:19.458Z,9.90
2023-05-14T17:45:22.222Z,10.23
2023-05-14T17:50:24.578Z,9.18
2023-05-14T17:55:27.222Z,10.23
2023-05-14T18:00:29.504Z,9.68
2023-05-14T18:05:32.583Z,11.00
2023-05-14T18:10:34.924Z,10.80
2023-05-14T18:15:37.533Z,11.07
2023-05-14T18:20:40.051Z,10.30
2023-05-14T18:25:42.378Z,10.02
2023-05-14T18:30:45.541Z,10.05
2023-05-14T18:35:47.902Z,11.85
2023-05-14T18:40:50.168Z,11.25
2023-05-14T18:45:52.490Z,10.70
2023-05-14T18:50:54.783Z,10.82
2023-05-14T18:55:57.347Z,12.30
2023-05-14T19:00:59.626Z,10.18
2023-05-14T19:06:01.964Z,11.70
2023-05-14T19:11:04.169Z,10.77
2023-05-14T19:16:07.216Z,10.50
2023-05-14T19:21:09.740Z,11.38
2023-05-14T19:26:12.040Z,12.15
2023-05-14T19:31:14.301Z,12.90
2023-05-14T19:36:16.525Z,12.23
2023-05-14T19:41:18.745Z,13.88
2023-05-14T20:01:12.200Z,13.52
2023-05-14T20:06:15.774Z,12.88
2023-05-14T20:11:19.663Z,12.50
2023-05-14T20:16:22.006Z,15.25
2023-05-14T20:21:24.218Z,12.23
2023-05-14T20:26:26.545Z,12.10
2023-05-14T20:31:29.110Z,11.05
2023-05-14T20:36:31.895Z,11.80
2023-05-14T20:41:34.292Z,12.32
2023-05-14T20:46:36.572Z,13.18
2023-05-14T20:51:38.876Z,12.43
2023-05-14T20:56:41.044Z,12.55
2023-05-14T21:01:43.338Z,11.35
2023-05-14T21:06:45.874Z,21.80
2023-05-14T21:11:48.167Z,12.90
2023-05-14T21:16:50.557Z,10.90
2023-05-14T21:21:52.831Z,11.13
2023-05-14T21:26:55.301Z,10.23
2023-05-14T21:31:57.568Z,11.15
2023-05-14T21:36:59.933Z,10.90
2023-05-14T21:42:02.210Z,11.02
2023-05-14T21:47:05.031Z,10.60
2023-05-14T21:52:07.582Z,11.38
2023-05-14T21:57:09.868Z,11.50
2023-05-14T22:02:12.295Z,11.68
2023-05-14T22:07:14.683Z,10.90
2023-05-14T22:12:16.951Z,11.15
2023-05-14T22:17:19.132Z,10.05
2023-05-14T22:22:21.331Z,10.50
2023-05-14T22:27:23.637Z,9.93
2023-05-14T22:32:26.060Z,10.40
2023-05-14T22:37:28.301Z,9.65
2023-05-14T22:42:30.616Z,10.30
2023-05-14T22:47:32.946Z,10.38
2023-05-14T22:52:35.250Z,9.85
2023-05-14T22:57:37.838Z,9.77
2023-05-14T23:02:40.158Z,11.20
2023-05-14T23:07:42.637Z,10.65
2023-05-14T23:12:44.869Z,10.90
2023-05-14T23:17:47.162Z,10.25
2023-05-14T23:22:49.627Z,10.65
2023-05-14T23:27:52.313Z,10.05
2023-05-14T23:32:54.646Z,10.13
2023-05-14T23:37:56.949Z,10.80
2023-05-14T23:43:00.398Z,9.90
2023-05-14T23:48:02.830Z,9.55
2023-05-14T23:53:05.289Z,9.95
2023-05-14T23:58:07.606Z,10.45
